createdAt,value
2023-03-30T00:00:09.854Z,25.0800
2023-03-30T00:00:21.038Z,25.0900
2023-03-30T00:00:32.252Z,25.0900
2023-03-30T00:00:43.437Z,25.0800
2023-03-30T00:00:54.662Z,25.0800
2023-03-30T00:01:06.250Z,25.0800
2023-03-30T00:01:17.731Z,25.0800
2023-03-30T00:01:28.785Z,25.0800
2023-03-30T00:01:39.835Z,25.0900
2023-03-30T00:01:50.884Z,25.0900
2023-03-30T00:02:01.969Z,25.0900
2023-03-30T00:02:13.075Z,25.0900
2023-03-30T00:02:24.255Z,25.0900
2023-03-30T00:02:35.496Z,25.0900
2023-03-30T00:02:46.602Z,25.1000
2023-03-30T00:02:57.821Z,25.1000
2023-03-30T00:03:09.191Z,25.1000
2023-03-30T00:03:20.654Z,25.1000
2023-03-30T00:03:31.897Z,25.0900
2023-03-30T00:03:43.302Z,25.0900
2023-03-30T00:03:54.721Z,25.0900
2023-03-30T00:04:06.275Z,25.0900
2023-03-30T00:04:17.721Z,25.0900
2023-03-30T00:04:29.172Z,25.0800
2023-03-30T00:04:40.375Z,25.0800
2023-03-30T00:04:51.569Z,25.0800
2023-03-30T00:05:02.733Z,25.0800
2023-03-30T00:05:14.091Z,25.0800
2023-03-30T00:05:25.400Z,25.0800
2023-03-30T00:05:36.439Z,25.0800
2023-03-30T00:05:47.499Z,25.0800
2023-03-30T00:05:58.639Z,25.0800
2023-03-30T00:06:09.880Z,25.0800
2023-03-30T00:06:21.121Z,25.0800
2023-03-30T00:06:32.250Z,25.0800
2023-03-30T00:06:43.452Z,25.0800
2023-03-30T00:06:54.493Z,25.0800
2023-03-30T00:07:05.556Z,25.0700
2023-03-30T00:07:16.724Z,25.0700
2023-03-30T00:07:27.934Z,25.0700
2023-03-30T00:07:39.002Z,25.0700
2023-03-30T00:07:50.040Z,25.0700
2023-03-30T00:08:01.204Z,25.0700
2023-03-30T00:08:12.408Z,25.0700
2023-03-30T00:08:23.605Z,25.0700
2023-03-30T00:08:34.636Z,25.0700
2023-03-30T00:08:45.684Z,25.0700
2023-03-30T00:08:56.894Z,25.0700
2023-03-30T00:09:08.084Z,25.0700
2023-03-30T00:09:19.280Z,25.0700
2023-03-30T00:09:30.320Z,25.0700
2023-03-30T00:09:41.372Z,25.0700
2023-03-30T00:09:52.411Z,25.0700
2023-03-30T00:10:03.469Z,25.0800
2023-03-30T00:10:14.681Z,25.0800
2023-03-30T00:10:25.856Z,25.0800
2023-03-30T00:10:37.071Z,25.0800
2023-03-30T00:10:48.247Z,25.0700
2023-03-30T00:10:59.290Z,25.0700
2023-03-30T00:11:10.375Z,25.0700
2023-03-30T00:11:21.526Z,25.0800
2023-03-30T00:11:32.727Z,25.0800
2023-03-30T00:11:43.944Z,25.0800
2023-03-30T00:11:54.985Z,25.0800
2023-03-30T00:12:06.015Z,25.0800
2023-03-30T00:12:17.205Z,25.0800
2023-03-30T00:12:28.251Z,25.0800
2023-03-30T00:12:39.321Z,25.0800
2023-03-30T00:12:50.533Z,25.0800
2023-03-30T00:13:01.679Z,25.0800
2023-03-30T00:13:12.889Z,25.0700
2023-03-30T00:13:24.086Z,25.0700
2023-03-30T00:13:35.134Z,25.0700
2023-03-30T00:13:46.160Z,25.0700
2023-03-30T00:13:57.367Z,25.0700
2023-03-30T00:14:08.379Z,25.0700
2023-03-30T00:14:19.455Z,25.0700
2023-03-30T00:14:30.657Z,25.0600
2023-03-30T00:14:41.690Z,25.0700
2023-03-30T00:14:52.770Z,25.0700
2023-03-30T00:15:03.925Z,25.0700
2023-03-30T00:15:15.121Z,25.0700
2023-03-30T00:15:26.338Z,25.0700
2023-03-30T00:15:37.527Z,25.0700
2023-03-30T00:15:48.724Z,25.0700
2023-03-30T00:15:59.961Z,25.0600
2023-03-30T00:16:11.262Z,25.0600
2023-03-30T00:16:22.380Z,25.0700
2023-03-30T00:16:33.537Z,25.0700
2023-03-30T00:16:44.795Z,25.0700
2023-03-30T00:16:56.083Z,25.0700
2023-03-30T00:17:07.229Z,25.0800
2023-03-30T00:17:18.355Z,25.0800
2023-03-30T00:17:29.550Z,25.0800
2023-03-30T00:17:40.736Z,25.0800
2023-03-30T00:17:51.989Z,25.0700
2023-03-30T00:18:03.174Z,25.0700
2023-03-30T00:18:14.321Z,25.0700
2023-03-30T00:18:25.410Z,25.0700
2023-03-30T00:18:36.430Z,25.0700
2023-03-30T00:18:47.611Z,25.0800
2023-03-30T00:18:58.799Z,25.0800
2023-03-30T00:19:09.851Z,25.0800
2023-03-30T00:19:20.890Z,25.0800
2023-03-30T00:19:31.929Z,25.0800
2023-03-30T00:19:43.038Z,25.0800
2023-03-30T00:19:54.175Z,25.0900
2023-03-30T00:20:05.409Z,25.0900
2023-03-30T00:20:16.616Z,25.0800
2023-03-30T00:20:27.817Z,25.0800
2023-03-30T00:20:39.031Z,25.0800
2023-03-30T00:20:50.181Z,25.0900
2023-03-30T00:21:01.413Z,25.0900
2023-03-30T00:21:12.602Z,25.0900
2023-03-30T00:21:23.766Z,25.0900
2023-03-30T00:21:34.800Z,25.0900
2023-03-30T00:21:45.849Z,25.0900
2023-03-30T00:21:56.893Z,25.0800
2023-03-30T00:22:07.920Z,25.0800
2023-03-30T00:22:19.119Z,25.0900
2023-03-30T00:22:30.146Z,25.0900
2023-03-30T00:22:41.220Z,25.0900
2023-03-30T00:22:52.415Z,25.0900
2023-03-30T00:23:03.608Z,25.0900
2023-03-30T00:23:14.650Z,25.0900
2023-03-30T00:23:25.738Z,25.0900
2023-03-30T00:23:36.921Z,25.0800
2023-03-30T00:23:48.040Z,25.0800
2023-03-30T00:23:59.193Z,25.0800
2023-03-30T00:24:10.240Z,25.0800
2023-03-30T00:24:21.365Z,25.0800
2023-03-30T00:24:32.559Z,25.0800
2023-03-30T00:24:43.766Z,25.0800
2023-03-30T00:24:54.807Z,25.0800
2023-03-30T00:25:05.846Z,25.0800
2023-03-30T00:25:17.054Z,25.0800
2023-03-30T00:25:28.265Z,25.0800
2023-03-30T00:25:39.449Z,25.0800
2023-03-30T00:25:50.646Z,25.0800
2023-03-30T00:26:01.696Z,25.0800
2023-03-30T00:26:12.815Z,25.0800
2023-03-30T00:26:23.863Z,25.0800
2023-03-30T00:26:34.909Z,25.0800
2023-03-30T00:26:46.013Z,25.0800
2023-03-30T00:26:57.206Z,25.0800
2023-03-30T00:27:08.244Z,25.0800
2023-03-30T00:27:19.281Z,25.0700
2023-03-30T00:27:30.496Z,25.0700
2023-03-30T00:27:41.691Z,25.0700
2023-03-30T00:27:52.894Z,25.0700
2023-03-30T00:28:03.950Z,25.0700
2023-03-30T00:28:15.009Z,25.0700
2023-03-30T00:28:26.255Z,25.0700
2023-03-30T00:28:37.362Z,25.0700
2023-03-30T00:28:48.560Z,25.0700
2023-03-30T00:28:59.766Z,25.0700
2023-03-30T00:29:10.791Z,25.0700
2023-03-30T00:29:21.852Z,25.0700
2023-03-30T00:29:33.057Z,25.0800
2023-03-30T00:29:44.250Z,25.0800
2023-03-30T00:29:55.442Z,25.0800
2023-03-30T00:30:06.539Z,25.0800
2023-03-30T00:30:17.590Z,25.0800
2023-03-30T00:30:28.625Z,25.0800
2023-03-30T00:30:39.664Z,25.0800
2023-03-30T00:30:50.804Z,25.0800
2023-03-30T00:31:02.319Z,25.0800
2023-03-30T00:31:13.882Z,25.0800
2023-03-30T00:31:25.067Z,25.0800
2023-03-30T00:31:36.114Z,25.0800
2023-03-30T00:31:47.165Z,25.0800
2023-03-30T00:31:58.371Z,25.0700
2023-03-30T00:32:09.458Z,25.0700
2023-03-30T00:32:20.520Z,25.0600
2023-03-30T00:32:31.664Z,25.0600
2023-03-30T00:32:42.821Z,25.0600
2023-03-30T00:32:54.008Z,25.0600
2023-03-30T00:33:05.373Z,25.0600
2023-03-30T00:33:16.429Z,25.0500
2023-03-30T00:33:41.212Z,25.0600
2023-03-30T00:33:46.912Z,25.0600
2023-03-30T00:33:58.686Z,25.0400
2023-03-30T00:34:09.848Z,25.0200
2023-03-30T00:34:21.054Z,25.0300
2023-03-30T00:34:32.244Z,25.0400
2023-03-30T00:34:43.279Z,25.0400
2023-03-30T00:34:54.319Z,25.0400
2023-03-30T00:35:05.534Z,25.0400
2023-03-30T00:35:16.741Z,25.0500
2023-03-30T00:35:27.932Z,25.0500
2023-03-30T00:35:39.000Z,25.0500
2023-03-30T00:35:50.084Z,25.0600
2023-03-30T00:36:01.192Z,25.0600
2023-03-30T00:36:12.590Z,25.0600
2023-03-30T00:36:24.026Z,25.0600
2023-03-30T00:36:35.124Z,25.0600
2023-03-30T00:36:46.305Z,25.0600
2023-03-30T00:36:57.356Z,25.0700
2023-03-30T00:37:08.405Z,25.0700
2023-03-30T00:37:19.638Z,25.0800
2023-03-30T00:37:30.798Z,25.0900
2023-03-30T00:37:42.042Z,25.0800
2023-03-30T00:37:53.215Z,25.0800
2023-03-30T00:38:04.247Z,25.0800
2023-03-30T00:38:15.281Z,25.0800
2023-03-30T00:38:26.498Z,25.0900
2023-03-30T00:38:37.708Z,25.0900
2023-03-30T00:38:48.728Z,25.0900
2023-03-30T00:38:59.758Z,25.0900
2023-03-30T00:39:10.798Z,25.0900
2023-03-30T00:39:21.838Z,25.0900
2023-03-30T00:39:33.050Z,25.0900
2023-03-30T00:39:44.268Z,25.0900
2023-03-30T00:39:55.444Z,25.0900
2023-03-30T00:40:06.648Z,25.0900
2023-03-30T00:40:17.849Z,25.0900
2023-03-30T00:40:29.043Z,25.0900
2023-03-30T00:40:40.237Z,25.0900
2023-03-30T00:40:51.277Z,25.0900
2023-03-30T00:41:02.568Z,25.0900
2023-03-30T00:41:13.889Z,25.0900
2023-03-30T00:41:25.084Z,25.0900
2023-03-30T00:41:36.237Z,25.0900
2023-03-30T00:41:47.449Z,25.0900
2023-03-30T00:41:58.642Z,25.0900
2023-03-30T00:42:09.689Z,25.0900
2023-03-30T00:42:20.727Z,25.0800
2023-03-30T00:42:31.932Z,25.0800
2023-03-30T00:42:43.137Z,25.0800
2023-03-30T00:42:54.188Z,25.0800
2023-03-30T00:43:05.230Z,25.0800
2023-03-30T00:43:16.291Z,25.0800
2023-03-30T00:43:27.348Z,25.0900
2023-03-30T00:43:38.479Z,25.0900
2023-03-30T00:43:49.525Z,25.0900
2023-03-30T00:44:00.574Z,25.0900
2023-03-30T00:44:11.756Z,25.0900
2023-03-30T00:44:22.797Z,25.0900
2023-03-30T00:44:33.847Z,25.0900
2023-03-30T00:44:44.890Z,25.0900
2023-03-30T00:44:55.917Z,25.0900
2023-03-30T00:45:07.133Z,25.0800
2023-03-30T00:45:18.348Z,25.0800
2023-03-30T00:45:29.385Z,25.0800
2023-03-30T00:45:40.492Z,25.0800
2023-03-30T00:45:51.642Z,25.0800
2023-03-30T00:46:02.821Z,25.0900
2023-03-30T00:46:13.900Z,25.0900
2023-03-30T00:46:24.973Z,25.0900
2023-03-30T00:46:36.127Z,25.0800
2023-03-30T00:46:47.277Z,25.0800
2023-03-30T00:46:58.494Z,25.0800
2023-03-30T00:47:09.682Z,25.0800
2023-03-30T00:47:20.882Z,25.0800
2023-03-30T00:47:32.087Z,25.0800
2023-03-30T00:47:43.189Z,25.0800
2023-03-30T00:47:54.284Z,25.0800
2023-03-30T00:48:05.482Z,25.0800
2023-03-30T00:48:16.566Z,25.0800
2023-03-30T00:48:27.771Z,25.0800
2023-03-30T00:48:38.974Z,25.0800
2023-03-30T00:48:50.020Z,25.0800
2023-03-30T00:49:01.073Z,25.0800
2023-03-30T00:49:12.254Z,25.0800
2023-03-30T00:49:23.443Z,25.0800
2023-03-30T00:49:34.548Z,25.0800
2023-03-30T00:49:45.633Z,25.0800
2023-03-30T00:49:56.695Z,25.0800
2023-03-30T00:50:07.962Z,25.0800
2023-03-30T00:50:19.010Z,25.0800
2023-03-30T00:50:30.049Z,25.0700
2023-03-30T00:50:41.201Z,25.0600
2023-03-30T00:50:52.396Z,25.0600
2023-03-30T00:51:03.684Z,25.0600
2023-03-30T00:51:15.127Z,25.0600
2023-03-30T00:51:26.168Z,25.0600
2023-03-30T00:51:37.240Z,25.0600
2023-03-30T00:51:48.405Z,25.0600
2023-03-30T00:51:59.461Z,25.0600
2023-03-30T00:52:10.476Z,25.0700
2023-03-30T00:52:21.533Z,25.0700
2023-03-30T00:52:32.566Z,25.0700
2023-03-30T00:52:43.770Z,25.0700
2023-03-30T00:52:54.965Z,25.0700
2023-03-30T00:53:06.013Z,25.0700
2023-03-30T00:53:17.081Z,25.0700
2023-03-30T00:53:28.251Z,25.0700
2023-03-30T00:53:39.266Z,25.0700
2023-03-30T00:53:50.360Z,25.0700
2023-03-30T00:54:01.531Z,25.0700
2023-03-30T00:54:12.546Z,25.0700
2023-03-30T00:54:23.610Z,25.0700
2023-03-30T00:54:34.812Z,25.0700
2023-03-30T00:54:45.847Z,25.0800
2023-03-30T00:54:56.899Z,25.0800
2023-03-30T00:55:08.094Z,25.0800
2023-03-30T00:55:19.123Z,25.0800
2023-03-30T00:55:30.167Z,25.0800
2023-03-30T00:55:41.243Z,25.0800
2023-03-30T00:55:52.280Z,25.0700
2023-03-30T00:56:03.450Z,25.0700
2023-03-30T00:56:14.642Z,25.0700
2023-03-30T00:56:25.851Z,25.0700
2023-03-30T00:56:37.036Z,25.0700
2023-03-30T00:56:48.326Z,25.0700
2023-03-30T00:56:59.483Z,25.0800
2023-03-30T00:57:10.710Z,25.0700
2023-03-30T00:57:21.925Z,25.0800
2023-03-30T00:57:32.984Z,25.0700
2023-03-30T00:57:44.104Z,25.0700
2023-03-30T00:57:55.203Z,25.0700
2023-03-30T00:58:06.242Z,25.0700
2023-03-30T00:58:17.306Z,25.0700
2023-03-30T00:58:28.414Z,25.0700
2023-03-30T00:58:39.462Z,25.0800
2023-03-30T00:58:50.504Z,25.0800
2023-03-30T00:59:01.673Z,25.0800
2023-03-30T00:59:12.732Z,25.0800
2023-03-30T00:59:23.768Z,25.0800
2023-03-30T00:59:34.962Z,25.0800
2023-03-30T00:59:46.003Z,25.0800
2023-03-30T00:59:57.054Z,25.0700
2023-03-30T01:00:08.240Z,25.0700
2023-03-30T01:00:19.368Z,25.0700
2023-03-30T01:00:30.420Z,25.0700
2023-03-30T01:00:41.524Z,25.0700
2023-03-30T01:00:52.556Z,25.0600
2023-03-30T01:01:03.902Z,25.0600
2023-03-30T01:01:15.246Z,25.0600
2023-03-30T01:01:26.394Z,25.0600
2023-03-30T01:01:37.473Z,25.0500
2023-03-30T01:01:48.787Z,25.0500
2023-03-30T01:01:59.954Z,25.0500
2023-03-30T01:02:11.201Z,25.0500
2023-03-30T01:02:22.319Z,25.0500
2023-03-30T01:02:33.643Z,25.0500
2023-03-30T01:02:44.786Z,25.0500
2023-03-30T01:02:55.961Z,25.0500
2023-03-30T01:03:07.639Z,25.0500
2023-03-30T01:03:18.970Z,25.0500
2023-03-30T01:03:30.413Z,25.0500
2023-03-30T01:03:41.799Z,25.0500
2023-03-30T01:03:53.014Z,25.0400
2023-03-30T01:04:04.159Z,25.0400
2023-03-30T01:04:15.293Z,25.0400
2023-03-30T01:04:26.488Z,25.0400
2023-03-30T01:04:37.769Z,25.0500
2023-03-30T01:04:48.802Z,25.0500
2023-03-30T01:04:59.853Z,25.0500
2023-03-30T01:05:10.967Z,25.0500
2023-03-30T01:05:22.158Z,25.0500
2023-03-30T01:05:33.372Z,25.0500
2023-03-30T01:05:44.561Z,25.0600
2023-03-30T01:05:55.637Z,25.0500
2023-03-30T01:06:06.681Z,25.0500
2023-03-30T01:06:17.920Z,25.0500
2023-03-30T01:06:29.379Z,25.0500
2023-03-30T01:06:40.946Z,25.0500
2023-03-30T01:06:52.164Z,25.0500
2023-03-30T01:07:03.291Z,25.0400
2023-03-30T01:07:14.473Z,25.0500
2023-03-30T01:07:25.691Z,25.0500
2023-03-30T01:07:36.918Z,25.0500
2023-03-30T01:07:47.947Z,25.0500
2023-03-30T01:07:59.019Z,25.0500
2023-03-30T01:08:10.171Z,25.0500
2023-03-30T01:08:21.363Z,25.0500
2023-03-30T01:08:32.696Z,25.0500
2023-03-30T01:08:43.749Z,25.0500
2023-03-30T01:08:54.976Z,25.0500
2023-03-30T01:09:06.173Z,25.0500
2023-03-30T01:09:17.389Z,25.0500
2023-03-30T01:09:28.559Z,25.0500
2023-03-30T01:09:39.764Z,25.0500
2023-03-30T01:09:50.799Z,25.0500
2023-03-30T01:10:01.887Z,25.0500
2023-03-30T01:10:13.047Z,25.0500
2023-03-30T01:10:24.257Z,25.0500
2023-03-30T01:10:35.448Z,25.0500
2023-03-30T01:10:46.506Z,25.0500
2023-03-30T01:10:57.547Z,25.0600
2023-03-30T01:11:08.608Z,25.0600
2023-03-30T01:11:19.673Z,25.0600
2023-03-30T01:11:30.805Z,25.0600
2023-03-30T01:11:41.841Z,25.0600
2023-03-30T01:11:52.943Z,25.0600
2023-03-30T01:12:04.082Z,25.0600
2023-03-30T01:12:15.108Z,25.0600
2023-03-30T01:12:26.164Z,25.0600
2023-03-30T01:12:37.374Z,25.0500
2023-03-30T01:12:48.570Z,25.0600
2023-03-30T01:12:59.764Z,25.0600
2023-03-30T01:13:10.961Z,25.0600
2023-03-30T01:13:22.024Z,25.0600
2023-03-30T01:13:33.038Z,25.0600
2023-03-30T01:13:44.255Z,25.0600
2023-03-30T01:13:55.448Z,25.0600
2023-03-30T01:14:06.520Z,25.0600
2023-03-30T01:14:17.566Z,25.0600
2023-03-30T01:14:28.605Z,25.0600
2023-03-30T01:14:39.661Z,25.0600
2023-03-30T01:14:50.686Z,25.0600
2023-03-30T01:15:01.743Z,25.0500
2023-03-30T01:15:12.871Z,25.0500
2023-03-30T01:15:24.111Z,25.0500
2023-03-30T01:15:35.208Z,25.0500
2023-03-30T01:15:46.524Z,25.0500
2023-03-30T01:15:57.723Z,25.0500
2023-03-30T01:16:08.737Z,25.0500
2023-03-30T01:16:19.805Z,25.0500
2023-03-30T01:16:30.963Z,25.0500
2023-03-30T01:16:42.025Z,25.0500
2023-03-30T01:16:53.092Z,25.0500
2023-03-30T01:17:04.282Z,25.0500
2023-03-30T01:17:15.318Z,25.0600
2023-03-30T01:17:26.409Z,25.0600
2023-03-30T01:17:37.611Z,25.0600
2023-03-30T01:17:48.690Z,25.0600
2023-03-30T01:17:59.849Z,25.0600
2023-03-30T01:18:11.048Z,25.0600
2023-03-30T01:18:22.086Z,25.0600
2023-03-30T01:18:33.221Z,25.0600
2023-03-30T01:18:44.404Z,25.0600
2023-03-30T01:18:55.430Z,25.0600
2023-03-30T01:19:06.482Z,25.0600
2023-03-30T01:19:17.688Z,25.0700
2023-03-30T01:19:28.892Z,25.0700
2023-03-30T01:19:40.088Z,25.0600
2023-03-30T01:19:51.306Z,25.0600
2023-03-30T01:20:02.485Z,25.0600
2023-03-30T01:20:13.690Z,25.0600
2023-03-30T01:20:24.732Z,25.0600
2023-03-30T01:20:35.769Z,25.0600
2023-03-30T01:20:46.969Z,25.0600
2023-03-30T01:20:58.018Z,25.0600
2023-03-30T01:21:09.074Z,25.0500
2023-03-30T01:21:20.251Z,25.0500
2023-03-30T01:21:31.405Z,25.0600
2023-03-30T01:21:42.438Z,25.0600
2023-03-30T01:21:53.567Z,25.0600
2023-03-30T01:22:04.706Z,25.0600
2023-03-30T01:22:15.922Z,25.0600
2023-03-30T01:22:26.966Z,25.0600
2023-03-30T01:22:38.009Z,25.0600
2023-03-30T01:22:49.583Z,25.0500
2023-03-30T01:23:00.720Z,25.0500
2023-03-30T01:23:11.927Z,25.0500
2023-03-30T01:23:23.145Z,25.0500
2023-03-30T01:23:34.207Z,25.0500
2023-03-30T01:23:45.264Z,25.0500
2023-03-30T01:23:56.408Z,25.0500
2023-03-30T01:24:07.415Z,25.0500
2023-03-30T01:24:18.477Z,25.0500
2023-03-30T01:24:29.685Z,25.0500
2023-03-30T01:24:40.879Z,25.0500
2023-03-30T01:24:51.988Z,25.0500
2023-03-30T01:25:03.086Z,25.0500
2023-03-30T01:25:14.155Z,25.0500
2023-03-30T01:25:25.379Z,25.0500
2023-03-30T01:25:36.411Z,25.0500
2023-03-30T01:25:47.447Z,25.0500
2023-03-30T01:25:58.646Z,25.0600
2023-03-30T01:26:09.844Z,25.0600
2023-03-30T01:26:20.926Z,25.0600
2023-03-30T01:26:31.961Z,25.0600
2023-03-30T01:26:43.116Z,25.0600
2023-03-30T01:26:54.322Z,25.0600
2023-03-30T01:27:05.564Z,25.0600
2023-03-30T01:27:16.757Z,25.0600
2023-03-30T01:27:27.926Z,25.0600
2023-03-30T01:27:38.971Z,25.0600
2023-03-30T01:27:50.032Z,25.0600
2023-03-30T01:28:01.216Z,25.0700
2023-03-30T01:28:12.404Z,25.0700
2023-03-30T01:28:23.454Z,25.0700
2023-03-30T01:28:34.496Z,25.0700
2023-03-30T01:28:45.684Z,25.0700
2023-03-30T01:28:56.877Z,25.0700
2023-03-30T01:29:08.088Z,25.0700
2023-03-30T01:29:19.119Z,25.0700
2023-03-30T01:29:30.172Z,25.0700
2023-03-30T01:29:41.199Z,25.0700
2023-03-30T01:29:52.243Z,25.0700
2023-03-30T01:30:03.447Z,25.0700
2023-03-30T01:30:14.651Z,25.0700
2023-03-30T01:30:25.851Z,25.0700
2023-03-30T01:30:36.895Z,25.0700
2023-03-30T01:30:47.943Z,25.0700
2023-03-30T01:30:59.148Z,25.0800
2023-03-30T01:31:10.378Z,25.0800
2023-03-30T01:31:21.547Z,25.0800
2023-03-30T01:31:32.742Z,25.0800
2023-03-30T01:31:44.016Z,25.0800
2023-03-30T01:31:55.135Z,25.0900
2023-03-30T01:32:06.352Z,25.0900
2023-03-30T01:32:17.541Z,25.1000
2023-03-30T01:32:28.785Z,25.1000
2023-03-30T01:32:39.847Z,25.1000
2023-03-30T01:32:50.877Z,25.1000
2023-03-30T01:33:01.932Z,25.1000
2023-03-30T01:33:13.004Z,25.1100
2023-03-30T01:33:24.084Z,25.1100
2023-03-30T01:33:35.288Z,25.1100
2023-03-30T01:33:46.330Z,25.1100
2023-03-30T01:33:57.368Z,25.1100
2023-03-30T01:34:08.413Z,25.1100
2023-03-30T01:34:19.457Z,25.1100
2023-03-30T01:34:30.644Z,25.1100
2023-03-30T01:34:41.846Z,25.1100
2023-03-30T01:34:52.923Z,25.1000
2023-03-30T01:35:04.007Z,25.1000
2023-03-30T01:35:15.144Z,25.1000
2023-03-30T01:35:26.423Z,25.0900
2023-03-30T01:35:37.659Z,25.0900
2023-03-30T01:35:49.118Z,25.0900
2023-03-30T01:36:00.351Z,25.0900
2023-03-30T01:36:11.823Z,25.0900
2023-03-30T01:36:23.000Z,25.0900
2023-03-30T01:36:34.052Z,25.0900
2023-03-30T01:36:45.078Z,25.0800
2023-03-30T01:36:56.118Z,25.0800
2023-03-30T01:37:07.158Z,25.0800
2023-03-30T01:37:18.319Z,25.0800
2023-03-30T01:37:29.517Z,25.0800
2023-03-30T01:37:40.567Z,25.0800
2023-03-30T01:37:51.602Z,25.0800
2023-03-30T01:38:02.648Z,25.0800
2023-03-30T01:38:13.700Z,25.0800
2023-03-30T01:38:24.891Z,25.0800
2023-03-30T01:38:35.919Z,25.0800
2023-03-30T01:38:46.975Z,25.0800
2023-03-30T01:38:58.157Z,25.0800
2023-03-30T01:39:09.225Z,25.0700
2023-03-30T01:39:20.348Z,25.0800
2023-03-30T01:39:31.444Z,25.0800
2023-03-30T01:39:42.639Z,25.0800
2023-03-30T01:39:53.848Z,25.0800
2023-03-30T01:40:05.046Z,25.0800
2023-03-30T01:40:16.079Z,25.0800
2023-03-30T01:40:27.115Z,25.0800
2023-03-30T01:40:38.329Z,25.0800
2023-03-30T01:40:49.526Z,25.0800
2023-03-30T01:41:00.788Z,25.0800
2023-03-30T01:41:11.875Z,25.0800
2023-03-30T01:41:22.904Z,25.0900
2023-03-30T01:41:34.015Z,25.0900
2023-03-30T01:41:45.201Z,25.0900
2023-03-30T01:41:56.419Z,25.0900
2023-03-30T01:42:07.477Z,25.0900
2023-03-30T01:42:18.548Z,25.0900
2023-03-30T01:42:29.605Z,25.0900
2023-03-30T01:42:40.648Z,25.1000
2023-03-30T01:42:51.766Z,25.0900
2023-03-30T01:43:02.972Z,25.1000
2023-03-30T01:43:14.007Z,25.1000
2023-03-30T01:43:25.044Z,25.1000
2023-03-30T01:43:36.094Z,25.1000
2023-03-30T01:43:47.133Z,25.1000
2023-03-30T01:43:58.324Z,25.1100
2023-03-30T01:44:09.438Z,25.1100
2023-03-30T01:44:20.510Z,25.1100
2023-03-30T01:44:31.539Z,25.1100
2023-03-30T01:44:42.584Z,25.1100
2023-03-30T01:44:53.678Z,25.1000
2023-03-30T01:45:04.888Z,25.1000
2023-03-30T01:45:16.081Z,25.1000
2023-03-30T01:45:27.279Z,25.1000
2023-03-30T01:45:38.488Z,25.1000
2023-03-30T01:45:49.528Z,25.1000
2023-03-30T01:46:00.559Z,25.0900
2023-03-30T01:46:11.799Z,25.1000
2023-03-30T01:46:23.004Z,25.1000
2023-03-30T01:46:34.085Z,25.1000
2023-03-30T01:46:45.381Z,25.1000
2023-03-30T01:46:56.642Z,25.1000
2023-03-30T01:47:07.808Z,25.1000
2023-03-30T01:47:18.839Z,25.1000
2023-03-30T01:47:29.944Z,25.1000
2023-03-30T01:47:41.081Z,25.1000
2023-03-30T01:47:52.177Z,25.1000
2023-03-30T01:48:03.259Z,25.1000
2023-03-30T01:48:14.329Z,25.1000
2023-03-30T01:48:25.524Z,25.1000
2023-03-30T01:48:36.552Z,25.1000
2023-03-30T01:48:47.598Z,25.1000
2023-03-30T01:48:58.652Z,25.1000
2023-03-30T01:49:09.701Z,25.1000
2023-03-30T01:49:20.885Z,25.1000
2023-03-30T01:49:31.941Z,25.1000
2023-03-30T01:49:42.965Z,25.1000
2023-03-30T01:49:54.167Z,25.1000
2023-03-30T01:50:05.201Z,25.1000
2023-03-30T01:50:16.241Z,25.1000
2023-03-30T01:50:27.437Z,25.1000
2023-03-30T01:50:38.649Z,25.1000
2023-03-30T01:50:49.838Z,25.1000
2023-03-30T01:51:01.298Z,25.1000
2023-03-30T01:51:12.570Z,25.1000
2023-03-30T01:51:23.764Z,25.1000
2023-03-30T01:51:34.806Z,25.1000
2023-03-30T01:51:45.848Z,25.1000
2023-03-30T01:51:56.932Z,25.1000
2023-03-30T01:52:08.036Z,25.1000
2023-03-30T01:52:19.053Z,25.1000
2023-03-30T01:52:30.098Z,25.1000
2023-03-30T01:52:41.256Z,25.1000
2023-03-30T01:52:52.419Z,25.1000
2023-03-30T01:53:03.598Z,25.1000
2023-03-30T01:53:14.724Z,25.1000
2023-03-30T01:53:25.775Z,25.1000
2023-03-30T01:53:36.888Z,25.1000
2023-03-30T01:53:48.088Z,25.1100
2023-03-30T01:53:59.133Z,25.1100
2023-03-30T01:54:10.164Z,25.1100
2023-03-30T01:54:21.199Z,25.1100
2023-03-30T01:54:32.236Z,25.1100
2023-03-30T01:54:43.463Z,25.1100
2023-03-30T01:54:54.644Z,25.1100
2023-03-30T01:55:05.845Z,25.1100
2023-03-30T01:55:17.044Z,25.1200
2023-03-30T01:55:28.244Z,25.1200
2023-03-30T01:55:39.544Z,25.1200
2023-03-30T01:55:50.646Z,25.1100
2023-03-30T01:56:01.700Z,25.1100
2023-03-30T01:56:12.734Z,25.1100
2023-03-30T01:56:23.919Z,25.1000
2023-03-30T01:56:34.976Z,25.1000
2023-03-30T01:56:46.055Z,25.1000
2023-03-30T01:56:57.217Z,25.1000
2023-03-30T01:57:08.519Z,25.1000
2023-03-30T01:57:19.643Z,25.1000
2023-03-30T01:57:30.799Z,25.1000
2023-03-30T01:57:42.000Z,25.0900
2023-03-30T01:57:53.206Z,25.1000
2023-03-30T01:58:04.410Z,25.1000
2023-03-30T01:58:15.598Z,25.1000
2023-03-30T01:58:26.802Z,25.0900
2023-03-30T01:58:37.839Z,25.1000
2023-03-30T01:58:48.882Z,25.0900
2023-03-30T01:59:00.132Z,25.0900
2023-03-30T01:59:11.158Z,25.0800
2023-03-30T01:59:22.181Z,25.0900
2023-03-30T01:59:33.376Z,25.0900
2023-03-30T01:59:44.439Z,25.0900
2023-03-30T01:59:55.488Z,25.0900
2023-03-30T02:00:06.640Z,25.0900
2023-03-30T02:00:17.697Z,25.0800
2023-03-30T02:00:28.722Z,25.0800
2023-03-30T02:00:39.849Z,25.0800
2023-03-30T02:00:50.908Z,25.0800
2023-03-30T02:01:02.316Z,25.0800
2023-03-30T02:01:13.784Z,25.0800
2023-03-30T02:01:24.882Z,25.0800
2023-03-30T02:01:35.969Z,25.0800
2023-03-30T02:01:47.173Z,25.0900
2023-03-30T02:01:58.239Z,25.0900
2023-03-30T02:02:09.330Z,25.0900
2023-03-30T02:02:20.401Z,25.0900
2023-03-30T02:02:31.661Z,25.0900
2023-03-30T02:02:42.883Z,25.0900
2023-03-30T02:02:54.058Z,25.0800
2023-03-30T02:03:05.171Z,25.0800
2023-03-30T02:03:16.482Z,25.0800
2023-03-30T02:03:27.709Z,25.0800
2023-03-30T02:03:38.967Z,25.0800
2023-03-30T02:03:50.435Z,25.0800
2023-03-30T02:04:01.594Z,25.0800
2023-03-30T02:04:12.668Z,25.0900
2023-03-30T02:04:23.742Z,25.0900
2023-03-30T02:04:34.804Z,25.0900
2023-03-30T02:04:46.008Z,25.0900
2023-03-30T02:04:57.203Z,25.0900
2023-03-30T02:05:08.399Z,25.0900
2023-03-30T02:05:19.607Z,25.0900
2023-03-30T02:05:30.800Z,25.0800
2023-03-30T02:05:42.027Z,25.0800
2023-03-30T02:05:53.198Z,25.0800
2023-03-30T02:06:04.408Z,25.0800
2023-03-30T02:06:15.428Z,25.0800
2023-03-30T02:06:26.484Z,25.0800
2023-03-30T02:06:37.700Z,25.0800
2023-03-30T02:06:48.728Z,25.0900
2023-03-30T02:06:59.759Z,25.0900
2023-03-30T02:07:10.828Z,25.0900
2023-03-30T02:07:21.893Z,25.0900
2023-03-30T02:07:33.050Z,25.1000
2023-03-30T02:07:44.247Z,25.1000
2023-03-30T02:07:55.447Z,25.1000
2023-03-30T02:08:06.643Z,25.1000
2023-03-30T02:08:17.683Z,25.1000
2023-03-30T02:08:28.718Z,25.1000
2023-03-30T02:08:39.941Z,25.1000
2023-03-30T02:08:51.120Z,25.1000
2023-03-30T02:09:02.168Z,25.1000
2023-03-30T02:09:13.198Z,25.1000
2023-03-30T02:09:24.260Z,25.1000
2023-03-30T02:09:35.290Z,25.1000
2023-03-30T02:09:46.330Z,25.1000
2023-03-30T02:09:57.386Z,25.1000
2023-03-30T02:10:08.571Z,25.1000
2023-03-30T02:10:19.765Z,25.0900
2023-03-30T02:10:30.820Z,25.0900
2023-03-30T02:10:41.968Z,25.0900
2023-03-30T02:10:53.049Z,25.0800
2023-03-30T02:11:04.383Z,25.0800
2023-03-30T02:11:15.800Z,25.0800
2023-03-30T02:11:26.958Z,25.0700
2023-03-30T02:11:38.173Z,25.0700
2023-03-30T02:11:49.373Z,25.0700
2023-03-30T02:12:00.590Z,25.0700
2023-03-30T02:12:11.821Z,25.0700
2023-03-30T02:12:22.842Z,25.0700
2023-03-30T02:12:33.858Z,25.0700
2023-03-30T02:12:45.044Z,25.0700
2023-03-30T02:12:56.246Z,25.0800
2023-03-30T02:13:07.448Z,25.0800
2023-03-30T02:13:18.638Z,25.0800
2023-03-30T02:13:29.847Z,25.0900
2023-03-30T02:13:41.063Z,25.0900
2023-03-30T02:13:52.244Z,25.0900
2023-03-30T02:14:03.439Z,25.0900
2023-03-30T02:14:14.644Z,25.0900
2023-03-30T02:14:25.679Z,25.1000
2023-03-30T02:14:36.736Z,25.1000
2023-03-30T02:14:47.936Z,25.1000
2023-03-30T02:14:58.964Z,25.1000